createdAt,value
2022-09-30T00:01:54.721Z,63.82
2022-09-30T00:04:25.763Z,63.72
2022-09-30T00:06:54.400Z,63.54
2022-09-30T00:09:21.997Z,63.16
2022-09-30T00:11:49.422Z,63.86
2022-09-30T00:14:20.559Z,62.56
2022-09-30T00:16:48.030Z,61.48
2022-09-30T00:19:18.084Z,63.53
2022-09-30T00:21:45.344Z,62.77
2022-09-30T00:24:15.058Z,62.56
2022-09-30T00:26:42.281Z,63.33
2022-09-30T00:29:10.959Z,63.01
2022-09-30T00:31:38.335Z,63.26
2022-09-30T00:34:11.744Z,63.16
2022-09-30T00:36:38.780Z,63.49
2022-09-30T00:39:08.353Z,63.88
2022-09-30T00:41:36.115Z,63.56
2022-09-30T00:44:23.294Z,64.13
2022-09-30T00:46:50.686Z,63.87
2022-09-30T00:49:23.882Z,62.78
2022-09-30T00:51:57.814Z,62.48
2022-09-30T00:54:31.118Z,62.76
2022-09-30T00:57:04.330Z,63.63
2022-09-30T00:59:38.336Z,63.10
2022-09-30T01:02:06.684Z,63.29
2022-09-30T01:04:35.335Z,62.26
2022-09-30T01:07:08.905Z,62.51
2022-09-30T01:09:39.799Z,63.01
2022-09-30T01:12:15.591Z,62.59
2022-09-30T01:14:44.972Z,63.76
2022-09-30T01:17:31.721Z,61.60
2022-09-30T01:20:52.897Z,62.23
2022-09-30T01:23:55.059Z,62.19
2022-09-30T01:27:24.734Z,62.43
2022-09-30T01:30:07.923Z,62.39
2022-09-30T01:32:53.586Z,63.02
2022-09-30T01:35:42.822Z,62.20
2022-09-30T01:38:29.494Z,61.31
2022-09-30T01:41:14.631Z,61.22
2022-09-30T01:44:11.375Z,61.77
2022-09-30T01:46:48.211Z,62.74
2022-09-30T01:49:35.012Z,63.25
2022-09-30T01:52:16.661Z,62.60
2022-09-30T01:55:14.029Z,64.23
2022-09-30T01:58:01.436Z,64.06
2022-09-30T02:00:52.306Z,63.17
2022-09-30T02:03:37.843Z,63.85
2022-09-30T02:06:21.800Z,63.60
2022-09-30T02:09:03.329Z,63.30
2022-09-30T02:11:41.118Z,65.06
2022-09-30T02:14:15.989Z,64.47
2022-09-30T02:16:55.265Z,63.62
2022-09-30T02:19:33.920Z,63.31
2022-09-30T02:22:20.252Z,62.31
2022-09-30T02:24:59.902Z,63.16
2022-09-30T02:27:35.098Z,63.80
2022-09-30T02:30:04.334Z,64.79
2022-09-30T02:33:09.578Z,64.26
2022-09-30T02:35:43.689Z,64.22
2022-09-30T02:38:24.973Z,62.83
2022-09-30T02:41:26.535Z,64.34
2022-09-30T02:43:55.742Z,65.14
2022-09-30T02:47:11.625Z,64.15
2022-09-30T02:50:02.324Z,63.98
2022-09-30T02:53:34.432Z,63.70
2022-09-30T02:56:19.826Z,63.64
2022-09-30T02:58:49.441Z,63.66
2022-09-30T03:01:17.740Z,63.69
2022-09-30T03:04:13.094Z,62.55
2022-09-30T03:06:40.288Z,63.88
2022-09-30T03:09:09.207Z,63.75
2022-09-30T03:11:40.339Z,63.64
2022-09-30T03:15:01.487Z,61.94
2022-09-30T03:18:04.350Z,61.72
2022-09-30T03:21:27.214Z,61.98
2022-09-30T03:24:37.163Z,62.29
2022-09-30T03:28:05.981Z,62.04
2022-09-30T03:30:41.577Z,63.98
2022-09-30T03:33:24.389Z,62.92
2022-09-30T03:36:15.601Z,62.96
2022-09-30T03:39:01.726Z,63.39
2022-09-30T03:41:43.886Z,63.93
2022-09-30T03:44:40.670Z,63.42
2022-09-30T03:47:12.900Z,64.98
2022-09-30T03:49:47.981Z,63.31
2022-09-30T03:52:15.897Z,65.54
2022-09-30T03:55:00.636Z,64.54
2022-09-30T03:57:29.492Z,65.07
2022-09-30T04:00:02.154Z,64.21
2022-09-30T04:02:29.473Z,66.39
2022-09-30T04:04:56.679Z,66.43
2022-09-30T04:07:25.913Z,66.20
2022-09-30T04:09:53.022Z,67.75
2022-09-30T04:12:20.118Z,67.15
2022-09-30T04:14:50.343Z,68.57
2022-09-30T04:17:19.867Z,68.50
2022-09-30T04:19:47.081Z,67.58
2022-09-30T04:22:14.138Z,67.00
2022-09-30T04:24:41.378Z,66.66
2022-09-30T04:27:08.362Z,67.53
2022-09-30T04:29:35.613Z,66.29
2022-09-30T04:32:02.769Z,66.88
2022-09-30T04:34:29.778Z,67.33
2022-09-30T04:36:56.776Z,67.63
2022-09-30T04:39:24.048Z,68.10
2022-09-30T04:41:53.955Z,70.18
2022-09-30T04:44:22.712Z,68.98
2022-09-30T04:46:50.708Z,69.22
2022-09-30T04:49:18.822Z,69.44
2022-09-30T04:51:46.304Z,69.66
2022-09-30T04:54:19.451Z,69.45
2022-09-30T04:56:46.460Z,68.40
2022-09-30T04:59:21.142Z,67.85
2022-09-30T05:01:48.292Z,67.56
2022-09-30T05:04:16.702Z,66.48
2022-09-30T05:06:44.106Z,66.29
2022-09-30T05:09:11.249Z,66.46
2022-09-30T05:11:43.010Z,66.23
2022-09-30T05:14:14.907Z,66.79
2022-09-30T05:16:42.007Z,67.21
2022-09-30T05:19:11.827Z,66.33
2022-09-30T05:21:38.820Z,65.65
2022-09-30T05:24:05.827Z,64.80
2022-09-30T05:26:34.056Z,66.08
2022-09-30T05:29:01.095Z,66.33
2022-09-30T05:31:30.515Z,66.33
2022-09-30T05:33:59.844Z,65.34
2022-09-30T05:36:30.424Z,65.57
2022-09-30T05:38:57.539Z,66.86
2022-09-30T05:41:24.785Z,67.46
2022-09-30T05:43:51.880Z,65.46
2022-09-30T05:46:20.332Z,65.22
2022-09-30T05:48:47.719Z,65.43
